TimeCET,TemperatureF,Dew PointF,Humidity,Sea Level PressureIn,VisibilityMPH,Wind Direction,Wind SpeedMPH,Gust SpeedMPH,PrecipitationIn,Events,Conditions,WindDirDegrees,DateUTC
1:00 AM,48,45,84,30.10,4,Calm,Calm,,,,Mist,,2012-11-16 00:00:00
6:00 AM,42.8,42.8,100,30.06,3.7,Calm,Calm,-,N/A,,Partly Cloudy,0,2012-11-16 05:00:00
6:30 AM,42.8,42.8,100,30.04,3.7,Variable,1.2,-,N/A,,Unknown,0,2012-11-16 05:30:00
7:00 AM,42,41,94,30.10,4,Calm,Calm,,,,,,2012-11-16 06:00:00
7:00 AM,42.8,42.8,100,30.04,5.0,Variable,1.2,-,N/A,,Unknown,0,2012-11-16 06:00:00
7:30 AM,42.8,42.8,100,30.06,5.0,Calm,Calm,-,N/A,,Unknown,0,2012-11-16 06:30:00
8:00 AM,42.8,42.8,100,30.06,5.6,Calm,Calm,-,N/A,,Unknown,0,2012-11-16 07:00:00
8:30 AM,42.8,41.0,93,30.06,5.6,Calm,Calm,-,N/A,,Partly Cloudy,0,2012-11-16 07:30:00
9:00 AM,44.6,44.6,100,30.06,5.6,Calm,Calm,-,N/A,,Partly Cloudy,0,2012-11-16 08:00:00
9:30 AM,48.2,46.4,93,30.06,5.6,Calm,Calm,-,N/A,,Partly Cloudy,0,2012-11-16 08:30:00
10:00 AM,51.8,48.2,88,30.06,5.6,Calm,Calm,-,N/A,,Partly Cloudy,0,2012-11-16 09:00:00
10:30 AM,53.6,48.2,82,30.06,6.2,Calm,Calm,-,N/A,,Partly Cloudy,0,2012-11-16 09:30:00
11:00 AM,55.4,50.0,82,30.04,6.2,Calm,Calm,-,N/A,,Partly Cloudy,0,2012-11-16 10:00:00
11:30 AM,59.0,51.8,77,30.04,6.2,NE,4.6,-,N/A,,Partly Cloudy,40,2012-11-16 10:30:00
12:00 PM,60.8,50.0,68,30.04,6.2,East,8.1,-,N/A,,Partly Cloudy,80,2012-11-16 11:00:00
12:30 PM,62.6,51.8,68,30.01,6.2,East,6.9,-,N/A,,Partly Cloudy,90,2012-11-16 11:30:00
1:00 PM,64,51,52,29.95,16,ESE,10.4,,,,Scattered Clouds,110,2012-11-16 12:00:00
1:00 PM,64.4,51.8,64,30.01,6.2,ESE,6.9,-,N/A,,Partly Cloudy,120,2012-11-16 12:00:00
1:30 PM,64.4,50.0,59,29.98,6.2,ESE,9.2,-,N/A,,Partly Cloudy,110,2012-11-16 12:30:00
2:00 PM,66.2,53.6,64,29.98,6.2,East,6.9,-,N/A,,Partly Cloudy,100,2012-11-16 13:00:00
2:30 PM,66.2,53.6,64,29.95,6.2,SE,8.1,-,N/A,,Partly Cloudy,130,2012-11-16 13:30:00
3:00 PM,68.0,53.6,60,29.92,6.2,SSE,10.4,-,N/A,,Partly Cloudy,150,2012-11-16 14:00:00
3:30 PM,66.2,53.6,64,29.92,6.2,SSE,9.2,-,N/A,,Partly Cloudy,150,2012-11-16 14:30:00
4:00 PM,66.2,53.6,64,29.92,6.2,SSE,9.2,-,N/A,,Partly Cloudy,160,2012-11-16 15:00:00
4:30 PM,66.2,53.6,64,29.92,6.2,SSE,11.5,-,N/A,,Partly Cloudy,150,2012-11-16 15:30:00
5:00 PM,64.4,53.6,68,29.92,6.2,South,10.4,-,N/A,,Partly Cloudy,180,2012-11-16 16:00:00
5:30 PM,64.4,53.6,68,29.92,6.2,South,9.2,-,N/A,,Partly Cloudy,170,2012-11-16 16:30:00
6:00 PM,60.8,51.8,72,29.92,6.2,SSW,3.5,-,N/A,,Partly Cloudy,200,2012-11-16 17:00:00
6:30 PM,60.8,51.8,72,29.95,6.2,SW,8.1,-,N/A,,Partly Cloudy,220,2012-11-16 17:30:00
7:00 PM,57,49,68,29.92,19,West,3.5,,,,Scattered Clouds,260,2012-11-16 18:00:00
7:00 PM,57.2,51.8,82,29.95,6.2,West,3.5,-,N/A,,Partly Cloudy,270,2012-11-16 18:00:00
7:30 PM,57.2,50.0,77,29.95,6.2,Variable,1.2,-,N/A,,Partly Cloudy,0,2012-11-16 18:30:00
8:00 PM,53.6,50.0,88,29.95,6.2,Variable,1.2,-,N/A,,Partly Cloudy,0,2012-11-16 19:00:00
8:30 PM,53.6,50.0,88,29.95,6.2,Calm,Calm,-,N/A,,Partly Cloudy,0,2012-11-16 19:30:00
9:00 PM,51.8,50.0,94,29.95,6.2,Variable,1.2,-,N/A,,Partly Cloudy,0,2012-11-16 20:00:00
9:30 PM,55.4,51.8,88,29.95,6.2,SSW,4.6,-,N/A,,Scattered Clouds,200,2012-11-16 20:30:00
10:00 PM,53.6,50.0,88,29.95,6.2,Variable,1.2,-,N/A,,Partly Cloudy,0,2012-11-16 21:00:00
10:30 PM,51.8,50.0,94,29.95,6.2,Calm,Calm,-,N/A,,Partly Cloudy,0,2012-11-16 21:30:00
11:00 PM,50.0,48.2,94,29.95,6.2,Calm,Calm,-,N/A,,Partly Cloudy,0,2012-11-16 22:00:00